createdAt,value
2019-03-09T00:00:25.756Z,69.50
2019-03-09T00:02:56.139Z,70.00
2019-03-09T00:05:26.299Z,70.20
2019-03-09T00:08:02.274Z,70.30
2019-03-09T00:10:36.865Z,70.20
2019-03-09T00:13:07.963Z,70.30
2019-03-09T00:15:41.915Z,70.30
2019-03-09T00:18:12.003Z,70.10
2019-03-09T00:20:42.058Z,69.90
2019-03-09T00:23:27.322Z,69.70
2019-03-09T00:26:22.554Z,68.50
2019-03-09T00:29:00.906Z,67.90
2019-03-09T00:31:36.294Z,67.50
2019-03-09T00:34:07.589Z,68.00
2019-03-09T00:36:39.276Z,68.20
2019-03-09T00:39:10.473Z,68.20
2019-03-09T00:41:43.562Z,67.70
2019-03-09T00:44:14.814Z,67.20
2019-03-09T00:46:46.456Z,67.20
2019-03-09T00:49:17.785Z,67.30
2019-03-09T00:51:48.529Z,67.40
2019-03-09T00:54:18.577Z,67.30
2019-03-09T00:56:51.442Z,67.30
2019-03-09T00:59:23.123Z,67.80
2019-03-09T01:01:53.103Z,67.20
2019-03-09T01:04:23.094Z,66.60
2019-03-09T01:06:54.914Z,66.70
2019-03-09T01:09:26.016Z,67.00
2019-03-09T01:11:58.604Z,66.20
2019-03-09T01:14:30.033Z,66.30
2019-03-09T01:17:05.076Z,65.90
2019-03-09T01:19:35.075Z,65.40
2019-03-09T01:22:05.156Z,65.30
2019-03-09T01:24:42.207Z,65.10
2019-03-09T01:27:12.310Z,64.90
2019-03-09T01:29:47.237Z,64.70
2019-03-09T01:32:17.091Z,64.80
2019-03-09T01:34:48.709Z,64.60
2019-03-09T01:37:18.813Z,65.20
2019-03-09T01:39:51.966Z,65.30
2019-03-09T01:42:23.723Z,65.60
2019-03-09T01:44:53.702Z,66.60
2019-03-09T01:47:23.777Z,67.30
2019-03-09T01:49:55.237Z,67.30
2019-03-09T01:52:25.291Z,67.60
2019-03-09T01:54:55.350Z,68.10
2019-03-09T01:57:25.339Z,68.20
2019-03-09T01:59:55.341Z,68.40
2019-03-09T02:02:27.990Z,68.60
2019-03-09T02:04:57.981Z,69.00
2019-03-09T02:07:32.481Z,68.90
2019-03-09T02:10:03.653Z,69.30
2019-03-09T02:12:35.396Z,69.10
2019-03-09T02:15:06.289Z,69.60
2019-03-09T02:17:36.278Z,69.40
2019-03-09T02:20:07.241Z,69.50
2019-03-09T02:22:37.303Z,68.60
2019-03-09T02:25:08.301Z,69.10
2019-03-09T02:27:41.395Z,69.30
2019-03-09T02:30:14.256Z,69.40
2019-03-09T02:32:47.352Z,69.30
2019-03-09T02:35:17.516Z,69.10
2019-03-09T02:37:48.671Z,68.90
2019-03-09T02:40:26.801Z,68.60
2019-03-09T02:42:58.570Z,68.40
2019-03-09T02:45:31.775Z,68.50
2019-03-09T02:48:01.855Z,68.70
2019-03-09T02:50:33.195Z,68.20
2019-03-09T02:53:06.486Z,67.90
2019-03-09T02:55:39.768Z,68.10
2019-03-09T02:58:12.191Z,67.90
2019-03-09T03:00:47.977Z,67.70
2019-03-09T03:03:18.060Z,67.80
2019-03-09T03:05:51.629Z,67.20
2019-03-09T03:08:20.956Z,67.20
2019-03-09T03:10:55.878Z,68.00
2019-03-09T03:13:29.324Z,67.20
2019-03-09T03:15:59.347Z,66.90
2019-03-09T03:18:29.437Z,67.20
2019-03-09T03:20:59.664Z,67.20
2019-03-09T03:23:32.690Z,67.50
2019-03-09T03:26:02.726Z,67.90
2019-03-09T03:28:35.253Z,67.20
2019-03-09T03:31:05.623Z,67.10
2019-03-09T03:33:35.783Z,66.70
2019-03-09T03:36:05.954Z,67.20
2019-03-09T03:38:37.371Z,66.80
2019-03-09T03:41:09.390Z,65.90
2019-03-09T03:43:40.332Z,66.20
2019-03-09T03:46:11.612Z,65.70
2019-03-09T03:48:45.679Z,65.70
2019-03-09T03:51:16.756Z,66.60
2019-03-09T03:53:47.904Z,66.40
2019-03-09T03:56:18.049Z,66.50
2019-03-09T03:58:51.049Z,66.40
2019-03-09T04:01:23.046Z,66.40
2019-03-09T04:03:54.364Z,66.40
2019-03-09T04:06:25.704Z,65.80
2019-03-09T04:08:58.726Z,66.10
2019-03-09T04:11:29.890Z,65.90
2019-03-09T04:14:01.213Z,65.60
2019-03-09T04:16:31.360Z,65.40
2019-03-09T04:19:01.401Z,65.20
2019-03-09T04:21:39.858Z,65.80
2019-03-09T04:24:12.128Z,66.70
2019-03-09T04:26:45.348Z,66.40
2019-03-09T04:29:18.713Z,66.50
2019-03-09T04:31:50.403Z,67.00
2019-03-09T04:34:20.386Z,67.30
2019-03-09T04:36:59.331Z,65.90
2019-03-09T04:39:29.359Z,65.70
2019-03-09T04:42:01.054Z,65.70
2019-03-09T04:44:31.119Z,65.00
2019-03-09T04:47:02.404Z,64.80
2019-03-09T04:49:35.596Z,65.40
2019-03-09T04:52:12.110Z,64.90
2019-03-09T04:54:42.174Z,65.20
2019-03-09T04:57:12.216Z,65.20
2019-03-09T04:59:43.368Z,65.40
2019-03-09T05:02:15.452Z,65.50
2019-03-09T05:04:51.356Z,65.70
2019-03-09T05:07:39.421Z,67.30
2019-03-09T05:10:46.855Z,66.80
2019-03-09T05:13:22.376Z,67.60
2019-03-09T05:15:54.966Z,68.00
2019-03-09T05:18:26.286Z,68.50
2019-03-09T05:20:56.352Z,67.60
2019-03-09T05:23:26.474Z,66.90
2019-03-09T05:25:59.514Z,67.20
2019-03-09T05:28:29.577Z,68.60
2019-03-09T05:31:02.527Z,68.40
2019-03-09T05:33:32.508Z,68.30
2019-03-09T05:36:04.153Z,68.20
2019-03-09T05:38:34.210Z,67.80
2019-03-09T05:41:05.518Z,68.70
2019-03-09T05:43:35.561Z,66.50
2019-03-09T05:46:06.745Z,67.80
2019-03-09T05:48:38.721Z,67.10
2019-03-09T05:51:08.749Z,66.70
2019-03-09T05:53:40.053Z,67.00
2019-03-09T05:56:18.972Z,66.70
2019-03-09T05:58:46.099Z,67.40
2019-03-09T06:01:16.261Z,65.90
2019-03-09T06:03:48.322Z,65.40
2019-03-09T06:06:23.088Z,65.20
2019-03-09T06:08:57.361Z,64.00
2019-03-09T06:11:27.473Z,63.80
2019-03-09T06:13:59.462Z,63.90
2019-03-09T06:16:30.610Z,63.20
2019-03-09T06:19:04.175Z,63.00
2019-03-09T06:21:34.324Z,63.00
2019-03-09T06:24:04.309Z,62.40
2019-03-09T06:26:38.883Z,61.00
2019-03-09T06:29:12.498Z,61.70
2019-03-09T06:31:47.102Z,61.70
2019-03-09T06:34:17.171Z,61.50
2019-03-09T06:37:03.714Z,61.10
2019-03-09T06:39:45.211Z,61.70
2019-03-09T06:42:42.467Z,61.20
2019-03-09T06:45:19.282Z,61.90
2019-03-09T06:47:50.612Z,62.50
2019-03-09T06:50:25.845Z,61.90
2019-03-09T06:53:00.567Z,61.10
2019-03-09T06:55:33.665Z,60.50
2019-03-09T06:58:03.644Z,61.40
2019-03-09T07:00:39.682Z,61.90
2019-03-09T07:03:10.716Z,61.10
2019-03-09T07:05:41.124Z,60.30
2019-03-09T07:08:11.198Z,59.90
2019-03-09T07:10:42.907Z,61.00
2019-03-09T07:13:15.795Z,60.20
2019-03-09T07:15:46.978Z,61.20
2019-03-09T07:18:27.642Z,60.60
2019-03-09T07:20:57.713Z,60.90
2019-03-09T07:23:27.851Z,60.60
2019-03-09T07:25:57.938Z,61.10
2019-03-09T07:28:28.017Z,61.10
2019-03-09T07:30:58.023Z,59.30
2019-03-09T07:33:28.094Z,58.60
2019-03-09T07:35:58.513Z,59.00
2019-03-09T07:38:29.607Z,58.50
2019-03-09T07:41:04.571Z,58.30
2019-03-09T07:43:35.496Z,58.60
2019-03-09T07:46:07.533Z,56.90
2019-03-09T07:48:37.356Z,56.80
2019-03-09T07:51:07.414Z,58.30
2019-03-09T07:53:39.912Z,57.80
2019-03-09T07:56:09.266Z,57.40
2019-03-09T07:58:43.991Z,56.50
2019-03-09T08:01:11.102Z,56.20
2019-03-09T08:03:41.198Z,56.10
2019-03-09T08:06:12.445Z,57.40
2019-03-09T08:08:42.537Z,56.70
2019-03-09T08:11:12.601Z,57.30
2019-03-09T08:13:43.744Z,58.30
2019-03-09T08:16:13.837Z,57.80
2019-03-09T08:18:47.556Z,57.30
2019-03-09T08:21:23.619Z,59.80
2019-03-09T08:23:53.665Z,58.00
2019-03-09T08:26:23.681Z,59.90
2019-03-09T08:28:54.831Z,63.00
2019-03-09T08:31:31.049Z,64.00
2019-03-09T08:34:01.226Z,64.10
2019-03-09T08:36:35.056Z,67.20
2019-03-09T08:39:06.256Z,66.80
2019-03-09T08:41:37.620Z,67.40
2019-03-09T08:44:10.691Z,68.00
2019-03-09T08:46:45.298Z,68.00
2019-03-09T08:49:18.515Z,66.50
2019-03-09T08:51:48.618Z,66.80
2019-03-09T08:54:18.710Z,66.60
2019-03-09T08:56:50.111Z,64.50
2019-03-09T08:59:22.283Z,64.80
2019-03-09T09:01:55.634Z,65.50
2019-03-09T09:04:27.069Z,64.50
2019-03-09T09:09:30.061Z,62.60
2019-03-09T09:11:59.410Z,61.20
2019-03-09T09:14:29.509Z,61.30
2019-03-09T09:17:00.711Z,61.00
2019-03-09T09:19:32.595Z,61.60
2019-03-09T09:22:02.663Z,62.40
2019-03-09T09:24:34.035Z,61.70
2019-03-09T09:27:08.969Z,62.50
2019-03-09T09:29:38.991Z,62.30
2019-03-09T09:32:09.148Z,60.40
2019-03-09T09:34:39.240Z,60.30
2019-03-09T09:37:13.598Z,60.60
2019-03-09T09:39:45.262Z,59.50
2019-03-09T09:42:17.136Z,59.30
2019-03-09T09:44:47.223Z,58.00
2019-03-09T09:47:20.088Z,57.10
2019-03-09T09:49:51.397Z,56.20
2019-03-09T09:52:23.988Z,56.60
2019-03-09T09:54:54.065Z,56.40
2019-03-09T09:57:24.172Z,56.40
2019-03-09T09:59:54.284Z,57.40
2019-03-09T10:02:24.384Z,57.20
2019-03-09T10:04:54.537Z,57.50
2019-03-09T10:07:24.617Z,57.60
2019-03-09T10:09:54.716Z,55.30
2019-03-09T10:12:24.902Z,55.20
2019-03-09T10:14:55.043Z,56.00
2019-03-09T10:17:25.191Z,55.30
2019-03-09T10:19:55.286Z,55.40
2019-03-09T10:22:25.478Z,54.20
2019-03-09T10:24:55.581Z,54.30
2019-03-09T10:27:25.753Z,53.70
2019-03-09T10:29:55.863Z,53.20
2019-03-09T10:34:55.377Z,53.20
2019-03-09T10:37:25.553Z,54.10
2019-03-09T10:39:55.693Z,54.50
2019-03-09T10:42:25.794Z,54.10
2019-03-09T10:44:55.975Z,54.10
2019-03-09T10:47:26.033Z,55.00
2019-03-09T10:49:56.121Z,54.60
2019-03-09T10:52:26.183Z,52.90
2019-03-09T10:54:56.296Z,53.70
2019-03-09T10:57:26.491Z,53.80
2019-03-09T10:59:56.589Z,53.10
2019-03-09T11:02:26.580Z,51.70
2019-03-09T11:04:56.712Z,51.60
2019-03-09T11:07:26.813Z,52.10
2019-03-09T11:09:56.894Z,52.50
2019-03-09T11:12:27.050Z,52.30
2019-03-09T11:14:57.145Z,52.00
2019-03-09T11:17:27.161Z,51.50
2019-03-09T11:19:57.280Z,51.50
2019-03-09T11:22:27.444Z,51.60
2019-03-09T11:25:03.296Z,52.40
2019-03-09T11:27:29.310Z,50.00
2019-03-09T11:29:59.330Z,48.60
2019-03-09T11:32:29.361Z,48.60
2019-03-09T11:34:59.459Z,47.00
2019-03-09T11:37:29.570Z,47.10
2019-03-09T11:39:59.711Z,48.00
2019-03-09T11:42:29.827Z,46.50
2019-03-09T11:45:00.019Z,48.10
2019-03-09T11:47:30.104Z,46.70
2019-03-09T11:50:00.354Z,44.80
2019-03-09T11:52:30.539Z,44.30
2019-03-09T11:55:00.636Z,44.60
2019-03-09T11:57:30.732Z,44.90
2019-03-09T12:00:00.836Z,44.60
2019-03-09T12:02:38.617Z,44.90
2019-03-09T12:05:02.775Z,46.10
2019-03-09T12:07:32.882Z,46.50
2019-03-09T12:10:03.056Z,47.40
2019-03-09T12:12:33.186Z,46.50
2019-03-09T12:15:03.372Z,46.30
2019-03-09T12:17:33.474Z,46.40
2019-03-09T12:20:03.717Z,46.00
2019-03-09T12:22:33.801Z,46.20
2019-03-09T12:25:03.896Z,46.40
2019-03-09T12:27:34.062Z,47.10
2019-03-09T12:30:04.590Z,46.70
2019-03-09T12:32:35.421Z,45.20
2019-03-09T12:35:05.900Z,45.30
2019-03-09T12:37:35.992Z,46.30
2019-03-09T12:40:08.677Z,46.30
2019-03-09T12:42:38.836Z,45.60
2019-03-09T12:45:09.744Z,45.90
2019-03-09T12:47:39.953Z,46.80
2019-03-09T12:50:12.819Z,47.10
2019-03-09T12:52:42.938Z,46.20
2019-03-09T12:55:17.527Z,46.90
2019-03-09T12:57:48.435Z,46.70
2019-03-09T13:00:20.123Z,46.60
2019-03-09T13:02:50.242Z,46.40
2019-03-09T13:05:20.636Z,47.10
2019-03-09T13:07:53.115Z,46.30
2019-03-09T13:10:23.048Z,46.90
2019-03-09T13:12:54.287Z,46.80
2019-03-09T13:15:26.784Z,46.20
2019-03-09T13:17:56.191Z,46.10
2019-03-09T13:20:26.399Z,46.40
2019-03-09T13:22:57.606Z,46.70
2019-03-09T13:25:29.345Z,47.30
2019-03-09T13:28:00.515Z,47.30
2019-03-09T13:30:36.607Z,47.10
2019-03-09T13:33:06.721Z,47.80
2019-03-09T13:35:36.827Z,45.80
2019-03-09T13:38:09.709Z,45.80
2019-03-09T13:40:43.953Z,45.40
2019-03-09T13:43:18.949Z,45.80
2019-03-09T13:45:51.539Z,47.90
2019-03-09T13:48:20.896Z,47.60
2019-03-09T13:50:52.556Z,48.30
2019-03-09T13:53:22.703Z,48.10
2019-03-09T13:55:52.812Z,47.80
2019-03-09T13:58:24.360Z,47.80
2019-03-09T14:00:54.486Z,48.30
2019-03-09T14:03:24.642Z,47.30
2019-03-09T14:05:55.926Z,48.40
2019-03-09T14:08:26.132Z,46.70
2019-03-09T14:10:57.973Z,47.30
2019-03-09T14:13:28.050Z,47.50
2019-03-09T14:15:58.220Z,49.00
2019-03-09T14:18:29.793Z,49.70
2019-03-09T14:20:59.902Z,50.10
2019-03-09T14:23:32.456Z,50.10
2019-03-09T14:26:02.866Z,50.70
2019-03-09T14:28:34.376Z,51.00
2019-03-09T14:31:04.508Z,50.80
2019-03-09T14:33:36.310Z,51.90
2019-03-09T14:36:06.418Z,52.10
2019-03-09T14:38:39.635Z,52.90
2019-03-09T14:41:10.940Z,53.20
2019-03-09T14:43:41.056Z,53.00
2019-03-09T14:46:12.306Z,53.10
2019-03-09T14:48:48.771Z,53.70
2019-03-09T14:51:18.880Z,55.10
2019-03-09T14:53:49.026Z,54.80
2019-03-09T14:56:19.243Z,55.00
2019-03-09T14:58:50.751Z,55.00
2019-03-09T15:01:22.429Z,54.70
2019-03-09T15:03:52.524Z,55.20
2019-03-09T15:06:22.617Z,55.80
2019-03-09T15:08:54.407Z,55.70
2019-03-09T15:11:25.508Z,55.80
2019-03-09T15:13:56.690Z,55.60
2019-03-09T15:16:26.860Z,55.40
2019-03-09T15:18:56.991Z,55.30
2019-03-09T15:21:28.351Z,55.20
2019-03-09T15:24:00.159Z,55.90
2019-03-09T15:26:32.938Z,56.20
2019-03-09T15:29:04.047Z,55.50
2019-03-09T15:31:35.601Z,55.20
2019-03-09T15:34:10.120Z,55.10
2019-03-09T15:36:40.265Z,54.60
2019-03-09T15:39:13.493Z,54.20
2019-03-09T15:41:46.030Z,55.10
2019-03-09T15:44:16.957Z,54.70
2019-03-09T15:46:49.998Z,55.60
2019-03-09T15:49:21.330Z,55.20
2019-03-09T15:51:58.054Z,55.60
2019-03-09T15:54:28.689Z,55.90
2019-03-09T15:56:59.875Z,56.50
2019-03-09T15:59:31.203Z,56.70
2019-03-09T16:02:11.028Z,57.10
2019-03-09T16:04:44.236Z,56.80
2019-03-09T16:07:14.121Z,57.40
2019-03-09T16:09:44.217Z,57.70
2019-03-09T16:12:14.333Z,57.80
2019-03-09T16:14:44.501Z,57.50
2019-03-09T16:17:14.604Z,58.30
2019-03-09T16:19:50.620Z,61.00
2019-03-09T16:22:25.386Z,63.70
2019-03-09T16:24:58.488Z,65.00
2019-03-09T16:27:28.672Z,66.40
2019-03-09T16:29:59.170Z,67.60
2019-03-09T16:32:31.158Z,69.00
2019-03-09T16:35:01.285Z,69.20
2019-03-09T16:37:31.434Z,71.00
2019-03-09T16:40:04.782Z,70.90
2019-03-09T16:42:39.220Z,72.80
2019-03-09T16:45:12.614Z,71.80
2019-03-09T16:47:42.776Z,74.40
2019-03-09T16:50:14.869Z,75.30
2019-03-09T16:52:47.896Z,75.30
2019-03-09T16:55:21.611Z,75.30
2019-03-09T16:57:51.440Z,74.30
2019-03-09T17:00:21.653Z,74.10
2019-03-09T17:02:55.402Z,74.90
2019-03-09T17:05:26.648Z,74.40
2019-03-09T17:07:56.783Z,74.30
2019-03-09T17:10:26.953Z,74.00
2019-03-09T17:12:57.041Z,73.80
2019-03-09T17:15:27.547Z,73.50
2019-03-09T17:17:57.736Z,72.90
2019-03-09T17:20:27.894Z,72.60
2019-03-09T17:22:58.021Z,71.60
2019-03-09T17:25:29.826Z,71.70
2019-03-09T17:28:02.331Z,71.40
2019-03-09T17:30:32.857Z,72.10
2019-03-09T17:33:03.043Z,72.70
2019-03-09T17:35:35.610Z,71.50
2019-03-09T17:38:07.494Z,71.80
2019-03-09T17:40:37.586Z,71.10
2019-03-09T17:43:09.395Z,71.50
2019-03-09T17:45:41.266Z,72.80
2019-03-09T17:48:12.625Z,72.20
2019-03-09T17:50:49.897Z,72.50
2019-03-09T17:53:21.471Z,71.70
2019-03-09T17:55:52.801Z,71.20
2019-03-09T17:58:24.221Z,70.90
2019-03-09T18:00:55.533Z,71.70
2019-03-09T18:03:25.709Z,71.60
2019-03-09T18:05:55.713Z,71.70
2019-03-09T18:08:27.578Z,70.80
2019-03-09T18:11:00.217Z,70.10
2019-03-09T18:13:30.301Z,71.10
2019-03-09T18:16:00.392Z,70.70
2019-03-09T18:18:30.488Z,69.90
2019-03-09T18:21:00.565Z,69.80
2019-03-09T18:23:31.694Z,70.60
2019-03-09T18:26:03.459Z,70.80
2019-03-09T18:28:33.606Z,70.60
2019-03-09T18:31:03.687Z,71.00
2019-03-09T18:33:33.795Z,71.30
2019-03-09T18:36:04.880Z,70.70
2019-03-09T18:38:34.888Z,70.80
2019-03-09T18:41:04.992Z,70.20
2019-03-09T18:43:35.525Z,71.30
2019-03-09T18:46:06.526Z,70.20
2019-03-09T18:48:36.587Z,70.10
2019-03-09T18:51:06.600Z,69.80
2019-03-09T18:53:36.691Z,70.40
2019-03-09T18:56:06.788Z,70.30
2019-03-09T18:58:36.877Z,70.70
2019-03-09T19:01:06.908Z,69.10
2019-03-09T19:03:39.881Z,68.90
2019-03-09T19:06:09.960Z,68.30
2019-03-09T19:08:40.016Z,68.10
2019-03-09T19:11:10.152Z,68.30
2019-03-09T19:13:40.252Z,70.90
2019-03-09T19:16:10.335Z,67.10
2019-03-09T19:18:40.460Z,67.30
2019-03-09T19:21:10.559Z,66.40
2019-03-09T19:23:40.650Z,66.50
2019-03-09T19:26:10.711Z,66.30
2019-03-09T19:28:40.866Z,66.50
2019-03-09T19:31:10.948Z,65.90
2019-03-09T19:33:40.961Z,65.90
2019-03-09T19:36:11.084Z,65.70
2019-03-09T19:38:41.136Z,64.80
2019-03-09T19:41:11.211Z,65.50
2019-03-09T19:43:41.340Z,65.50
2019-03-09T19:46:13.189Z,64.50
2019-03-09T19:48:43.220Z,63.90
2019-03-09T19:51:13.315Z,63.30
2019-03-09T19:53:43.436Z,63.60
2019-03-09T19:56:15.176Z,64.20
2019-03-09T19:58:45.205Z,64.00
2019-03-09T20:01:15.184Z,63.70
2019-03-09T20:03:46.835Z,63.10
2019-03-09T20:06:16.948Z,62.80
2019-03-09T20:08:48.731Z,62.20
2019-03-09T20:11:18.805Z,63.00
2019-03-09T20:13:51.315Z,61.80
2019-03-09T20:16:20.587Z,61.60
2019-03-09T20:18:50.587Z,60.70
2019-03-09T20:21:20.615Z,60.50
2019-03-09T20:23:53.735Z,60.40
2019-03-09T20:26:23.767Z,59.90
2019-03-09T20:28:53.777Z,60.20
2019-03-09T20:31:27.176Z,59.80
2019-03-09T20:33:57.328Z,59.50
2019-03-09T20:36:27.487Z,59.20
2019-03-09T20:38:57.555Z,59.30
2019-03-09T20:41:30.414Z,58.30
2019-03-09T20:44:00.548Z,58.40
2019-03-09T20:46:41.603Z,58.90
2019-03-09T20:49:04.032Z,58.10
2019-03-09T20:51:34.098Z,57.90
2019-03-09T20:54:04.140Z,57.80
2019-03-09T20:56:36.676Z,58.00
2019-03-09T20:59:07.585Z,57.30
2019-03-09T21:01:40.794Z,57.30
2019-03-09T21:04:10.978Z,57.50
2019-03-09T21:06:41.049Z,57.70
2019-03-09T21:09:12.268Z,57.90
2019-03-09T21:11:43.293Z,57.50
2019-03-09T21:14:15.028Z,57.80
2019-03-09T21:16:45.048Z,57.40
2019-03-09T21:19:15.154Z,56.70
2019-03-09T21:21:48.030Z,56.90
2019-03-09T21:24:21.064Z,56.60
2019-03-09T21:26:52.478Z,55.70
2019-03-09T21:29:22.575Z,55.20
2019-03-09T21:31:52.609Z,55.50
2019-03-09T21:34:26.758Z,54.90
2019-03-09T21:36:56.846Z,55.20
2019-03-09T21:39:29.893Z,54.80
2019-03-09T21:42:00.534Z,54.80
2019-03-09T21:44:31.824Z,55.00
2019-03-09T21:47:03.946Z,55.20
2019-03-09T21:49:33.724Z,55.20
2019-03-09T21:52:08.037Z,55.30
2019-03-09T21:54:38.204Z,55.40
2019-03-09T21:57:10.212Z,55.80
2019-03-09T21:59:40.974Z,56.80
2019-03-09T22:02:14.337Z,55.60
2019-03-09T22:04:43.686Z,56.10
2019-03-09T22:07:14.045Z,55.90
2019-03-09T22:09:44.120Z,56.40
2019-03-09T22:12:17.031Z,56.10
2019-03-09T22:14:48.221Z,56.70
2019-03-09T22:17:18.236Z,57.40
2019-03-09T22:19:52.703Z,57.30
2019-03-09T22:22:23.875Z,57.30
2019-03-09T22:24:53.928Z,56.90
2019-03-09T22:27:29.462Z,56.60
2019-03-09T22:30:04.911Z,56.00
2019-03-09T22:32:34.259Z,56.20
2019-03-09T22:35:04.515Z,56.70
2019-03-09T22:37:34.622Z,57.00
2019-03-09T22:40:14.825Z,57.30
2019-03-09T22:42:47.707Z,57.40
2019-03-09T22:45:17.890Z,57.50
2019-03-09T22:47:47.920Z,57.90
2019-03-09T22:50:18.015Z,59.00
2019-03-09T22:52:48.089Z,58.20
2019-03-09T22:55:20.747Z,58.40
2019-03-09T22:57:50.821Z,58.50
2019-03-09T23:00:22.216Z,58.90
2019-03-09T23:02:52.276Z,59.20
2019-03-09T23:05:27.650Z,59.10
2019-03-09T23:07:58.488Z,59.20
2019-03-09T23:10:28.725Z,59.30
2019-03-09T23:12:58.733Z,59.60
2019-03-09T23:15:31.645Z,59.60
2019-03-09T23:18:04.583Z,59.90
2019-03-09T23:20:36.216Z,60.00
2019-03-09T23:23:06.282Z,60.60
2019-03-09T23:25:38.689Z,60.40
2019-03-09T23:28:08.767Z,60.80
2019-03-09T23:30:39.995Z,60.70
2019-03-09T23:33:10.121Z,61.10
2019-03-09T23:35:40.195Z,61.10
2019-03-09T23:38:13.288Z,61.30
2019-03-09T23:40:43.286Z,61.30
2019-03-09T23:43:14.560Z,61.50
2019-03-09T23:45:52.550Z,61.70
2019-03-09T23:48:25.190Z,62.00
2019-03-09T23:50:59.890Z,62.10
2019-03-09T23:53:32.800Z,62.10
2019-03-09T23:56:06.178Z,62.40
2019-03-09T23:58:37.103Z,62.40
